Time;durP1;ratioP1;P1;durP2;ratioP2;P2;SDS_P1;SDS_P2;PMS_P1;PMS_P2;Temp;Humidity;BMP_temperature;BMP_pressure;BME280_temperature;BME280_humidity;BME280_pressure;Samples;Min_cycle;Max_cycle;Signal;HPM_P1;HPM_P2
2021/01/17 00:00:49;;;;;;;40.50;28.65;;;3.00;91.60;;;;;;4896810;29;20040;-69
2021/01/17 00:03:16;;;;;;;39.65;27.80;;;3.00;91.70;;;;;;4897011;29;20032;-69
2021/01/17 00:05:42;;;;;;;33.97;25.38;;;3.00;91.70;;;;;;4897615;29;20375;-69
2021/01/17 00:08:09;;;;;;;35.55;25.75;;;3.00;91.60;;;;;;4896249;29;20447;-70
2021/01/17 00:10:35;;;;;;;34.85;24.70;;;3.00;91.60;;;;;;4880619;29;20059;-69
2021/01/17 00:13:01;;;;;;;33.85;25.02;;;3.00;91.60;;;;;;4897138;29;20060;-69
2021/01/17 00:15:27;;;;;;;35.05;25.73;;;3.00;91.70;;;;;;4896940;29;20107;-70
2021/01/17 00:17:52;;;;;;;31.65;24.25;;;3.00;91.70;;;;;;4897146;29;20043;-68
2021/01/17 00:20:20;;;;;;;36.80;24.55;;;3.00;91.70;;;;;;4896363;29;20024;-68
2021/01/17 00:22:46;;;;;;;36.42;25.60;;;3.00;91.70;;;;;;4897064;29;20039;-69
2021/01/17 00:25:15;;;;;;;32.80;24.83;;;3.00;91.70;;;;;;4880275;29;20862;-70
2021/01/17 00:27:40;;;;;;;33.58;25.30;;;3.10;91.70;;;;;;4879862;29;20028;-70
2021/01/17 00:30:08;;;;;;;33.63;25.25;;;3.10;91.70;;;;;;4879513;29;20381;-68
2021/01/17 00:32:35;;;;;;;30.58;23.40;;;3.10;91.70;;;;;;4880401;29;20028;-68
2021/01/17 00:35:02;;;;;;;31.27;23.42;;;3.10;91.70;;;;;;4896241;29;20025;-69
2021/01/17 00:37:28;;;;;;;32.50;24.52;;;3.10;91.70;;;;;;4896632;29;20080;-68
2021/01/17 00:39:53;;;;;;;33.58;24.63;;;3.10;91.70;;;;;;4896968;29;20434;-68
2021/01/17 00:42:19;;;;;;;34.30;24.92;;;3.10;91.70;;;;;;4879128;29;20051;-68
2021/01/17 00:44:44;;;;;;;31.38;23.73;;;3.10;91.70;;;;;;4896947;29;20497;-68
2021/01/17 00:47:13;;;;;;;36.22;25.48;;;3.10;91.70;;;;;;4896603;29;20060;-69
2021/01/17 00:49:40;;;;;;;34.55;25.48;;;3.10;91.70;;;;;;4896382;29;20080;-67
2021/01/17 00:52:05;;;;;;;36.03;24.83;;;3.10;91.70;;;;;;4896454;29;20068;-67
2021/01/17 00:54:31;;;;;;;32.78;24.85;;;3.10;91.70;;;;;;4897022;29;20065;-67
2021/01/17 00:57:02;;;;;;;32.63;24.10;;;3.10;91.70;;;;;;4896203;29;20482;-68
2021/01/17 00:59:27;;;;;;;33.38;24.80;;;3.10;91.80;;;;;;4896600;29;20033;-67
2021/01/17 01:01:53;;;;;;;33.97;24.20;;;3.10;91.80;;;;;;4896788;29;20083;-68
2021/01/17 01:04:19;;;;;;;32.95;24.20;;;3.10;91.70;;;;;;4895926;29;20385;-68
2021/01/17 01:06:44;;;;;;;34.40;24.55;;;3.10;91.80;;;;;;4880077;29;20036;-68
2021/01/17 01:09:14;;;;;;;35.50;25.83;;;3.10;91.80;;;;;;4896435;29;20084;-69
2021/01/17 01:11:40;;;;;;;37.20;25.27;;;3.10;91.80;;;;;;4896250;29;20549;-68
2021/01/17 01:14:07;;;;;;;34.50;25.38;;;3.10;91.80;;;;;;4896186;29;20069;-68
2021/01/17 01:16:33;;;;;;;34.85;25.02;;;3.10;91.90;;;;;;4896199;29;20021;-68
2021/01/17 01:19:00;;;;;;;33.33;24.02;;;3.10;91.90;;;;;;4896563;29;20541;-69
2021/01/17 01:21:30;;;;;;;36.75;25.92;;;3.00;91.90;;;;;;4896362;29;20047;-69
2021/01/17 01:23:56;;;;;;;35.17;25.23;;;3.00;91.90;;;;;;4895929;29;20025;-68
2021/01/17 01:26:22;;;;;;;36.35;25.55;;;3.00;92.00;;;;;;4896310;29;20403;-68
2021/01/17 01:28:49;;;;;;;35.67;24.65;;;3.00;92.00;;;;;;4879816;29;20025;-68
2021/01/17 01:31:23;;;;;;;38.53;25.50;;;3.00;92.00;;;;;;4895588;29;20024;-69
2021/01/17 01:33:49;;;;;;;41.08;25.17;;;3.00;92.00;;;;;;4896608;29;20036;-69
2021/01/17 01:36:19;;;;;;;38.55;25.35;;;3.00;92.00;;;;;;4896112;29;20028;-68
2021/01/17 01:38:45;;;;;;;36.55;25.40;;;3.00;92.00;;;;;;4895788;29;20053;-68
2021/01/17 01:41:10;;;;;;;37.35;25.10;;;2.90;92.00;;;;;;4896028;29;20037;-69
2021/01/17 01:43:36;;;;;;;34.92;24.52;;;2.90;92.10;;;;;;4899946;29;20478;-69
2021/01/17 01:46:02;;;;;;;38.00;25.77;;;2.90;92.00;;;;;;4882197;29;20043;-68
2021/01/17 01:48:34;;;;;;;39.05;25.13;;;2.90;92.10;;;;;;4899588;29;20433;-68
2021/01/17 01:51:03;;;;;;;;;;;2.90;92.20;;;;;;4900209;29;20036;-69
2021/01/17 01:53:29;;;;;;;40.63;25.25;;;2.90;92.20;;;;;;4899016;29;20365;-69
2021/01/17 01:55:56;;;;;;;39.92;26.08;;;3.00;92.10;;;;;;4882770;29;20534;-69
2021/01/17 01:58:23;;;;;;;38.80;25.90;;;2.90;92.10;;;;;;4899385;29;20099;-69
2021/01/17 02:00:50;;;;;;;41.85;26.27;;;3.00;92.20;;;;;;4898846;29;20024;-69
2021/01/17 02:03:15;;;;;;;38.60;26.63;;;3.00;92.20;;;;;;4898813;29;20029;-69
2021/01/17 02:05:41;;;;;;;34.92;24.50;;;3.00;92.20;;;;;;4898667;29;20035;-68
2021/01/17 02:08:10;;;;;;;37.97;26.25;;;3.00;92.20;;;;;;4899029;29;20359;-68
2021/01/17 02:10:36;;;;;;;38.97;27.10;;;3.00;92.20;;;;;;4899498;29;20025;-69
2021/01/17 02:13:14;;;;;;;36.63;25.55;;;3.00;92.20;;;;;;4898617;29;20025;-69
2021/01/17 02:15:41;;;;;;;43.30;27.20;;;3.10;92.20;;;;;;4899554;29;20052;-69
2021/01/17 02:18:08;;;;;;;41.83;26.90;;;3.00;92.20;;;;;;4882052;29;20084;-69
2021/01/17 02:20:37;;;;;;;45.28;26.10;;;3.00;92.30;;;;;;4898964;29;20212;-69
2021/01/17 02:23:14;;;;;;;44.03;26.65;;;3.00;92.20;;;;;;4882110;29;20040;-69
2021/01/17 02:25:40;;;;;;;42.55;27.20;;;3.00;92.30;;;;;;4899412;29;20024;-69
2021/01/17 02:28:11;;;;;;;44.35;27.88;;;3.00;92.30;;;;;;4898082;29;20040;-69
2021/01/17 02:30:45;;;;;;;41.00;25.77;;;3.00;92.30;;;;;;4899294;29;20028;-69
2021/01/17 02:33:23;;;;;;;43.17;25.83;;;3.00;92.30;;;;;;4898690;29;20276;-69
2021/01/17 02:36:11;;;;;;;41.38;26.15;;;3.00;92.40;;;;;;4881597;29;20033;-69
2021/01/17 02:39:09;;;;;;;42.10;25.58;;;3.00;92.50;;;;;;4898998;29;20057;-69
2021/01/17 02:41:51;;;;;;;40.53;26.30;;;3.00;92.50;;;;;;4898427;29;20041;-69
2021/01/17 02:44:18;;;;;;;40.85;25.95;;;3.00;92.50;;;;;;4898486;29;20072;-69
2021/01/17 02:46:45;;;;;;;44.05;26.00;;;3.00;92.50;;;;;;4882049;29;20505;-70
2021/01/17 02:49:10;;;;;;;41.28;26.10;;;3.00;92.60;;;;;;4897729;29;20025;-69
2021/01/17 02:51:35;;;;;;;41.28;25.23;;;3.10;92.60;;;;;;4881902;29;20024;-69
2021/01/17 02:54:09;;;;;;;41.05;24.65;;;3.10;92.50;;;;;;4898247;29;20028;-68
2021/01/17 02:56:41;;;;;;;38.30;25.05;;;3.10;92.50;;;;;;4898184;29;20607;-68
2021/01/17 02:59:11;;;;;;;36.95;25.05;;;3.20;92.50;;;;;;4898070;29;20029;-69
2021/01/17 03:01:38;;;;;;;39.03;25.35;;;3.20;92.50;;;;;;4898563;29;20020;-69
2021/01/17 03:04:19;;;;;;;37.88;25.08;;;3.20;92.50;;;;;;4897414;29;20036;-67
2021/01/17 03:06:46;;;;;;;39.42;26.05;;;3.20;92.50;;;;;;4898392;29;20032;-68
2021/01/17 03:09:12;;;;;;;35.88;23.48;;;3.20;92.50;;;;;;4897509;29;20552;-69
2021/01/17 03:11:37;;;;;;;39.40;26.10;;;3.20;92.50;;;;;;4898194;29;20036;-69
2021/01/17 03:14:05;;;;;;;42.65;25.45;;;3.20;92.50;;;;;;4880616;29;20382;-68
2021/01/17 03:16:31;;;;;;;39.17;24.95;;;3.10;92.50;;;;;;4897684;29;20051;-69
2021/01/17 03:18:56;;;;;;;39.08;24.17;;;3.10;92.50;;;;;;4898056;29;20482;-69
2021/01/17 03:21:22;;;;;;;38.35;25.05;;;3.00;92.60;;;;;;4897856;29;20037;-69
2021/01/17 03:23:47;;;;;;;39.05;24.05;;;3.00;92.70;;;;;;4897489;29;20485;-68
2021/01/17 03:26:13;;;;;;;39.47;25.45;;;3.00;93.00;;;;;;4897783;29;20060;-68
2021/01/17 03:28:38;;;;;;;37.63;24.15;;;3.00;92.70;;;;;;4898232;29;20028;-69
2021/01/17 03:31:04;;;;;;;39.08;25.13;;;3.00;92.70;;;;;;4897005;29;20028;-68
2021/01/17 03:33:29;;;;;;;40.50;25.70;;;3.00;92.70;;;;;;4898131;29;20032;-68
2021/01/17 03:35:55;;;;;;;36.95;23.60;;;3.00;92.70;;;;;;4897952;29;20558;-68
2021/01/17 03:38:20;;;;;;;34.85;24.10;;;3.00;92.80;;;;;;4896850;29;20053;-69
2021/01/17 03:40:46;;;;;;;35.97;23.35;;;3.00;92.90;;;;;;4897949;29;20031;-69
2021/01/17 03:43:11;;;;;;;35.75;22.63;;;3.00;92.90;;;;;;4897316;29;20091;-69
2021/01/17 03:45:37;;;;;;;39.90;25.25;;;3.00;92.90;;;;;;4897502;29;20033;-68
2021/01/17 03:48:02;;;;;;;35.67;23.70;;;3.00;92.90;;;;;;4897799;29;20032;-68
2021/01/17 03:50:28;;;;;;;32.83;23.20;;;3.00;92.90;;;;;;4897660;29;20473;-69
2021/01/17 03:52:54;;;;;;;31.10;21.88;;;3.00;92.90;;;;;;4897023;29;20033;-68
2021/01/17 03:55:19;;;;;;;33.08;22.85;;;3.10;92.90;;;;;;4897711;29;20020;-69
2021/01/17 03:57:45;;;;;;;31.65;22.10;;;3.10;92.90;;;;;;4897566;29;20064;-68
2021/01/17 04:00:11;;;;;;;33.95;22.90;;;3.20;92.90;;;;;;4896756;29;20048;-69
2021/01/17 04:02:36;;;;;;;32.90;22.15;;;3.20;92.90;;;;;;4880785;29;20037;-68
2021/01/17 04:05:02;;;;;;;32.45;22.83;;;3.10;92.80;;;;;;4896684;29;20095;-69
2021/01/17 04:07:28;;;;;;;34.55;22.70;;;3.20;92.90;;;;;;4879697;29;20052;-68
2021/01/17 04:09:54;;;;;;;32.03;21.55;;;3.20;92.90;;;;;;4897258;29;20454;-68
2021/01/17 04:12:19;;;;;;;31.25;21.52;;;3.10;92.80;;;;;;4879714;29;20036;-68
2021/01/17 04:14:45;;;;;;;29.92;21.33;;;3.20;92.90;;;;;;4897327;29;20500;-67
2021/01/17 04:17:10;;;;;;;30.35;20.50;;;3.10;92.90;;;;;;4897170;29;20028;-67
2021/01/17 04:19:36;;;;;;;30.35;20.80;;;3.10;92.90;;;;;;4896806;29;20028;-69
2021/01/17 04:22:01;;;;;;;28.75;20.30;;;3.10;92.90;;;;;;4897032;29;20033;-69
2021/01/17 04:24:27;;;;;;;27.70;20.33;;;3.10;92.90;;;;;;4896905;29;20032;-67
2021/01/17 04:26:57;;;;;;;28.92;20.40;;;3.10;93.00;;;;;;4896663;29;20037;-67
2021/01/17 04:29:23;;;;;;;27.13;19.52;;;3.20;93.00;;;;;;4897210;29;20028;-67
2021/01/17 04:31:48;;;;;;;27.90;19.90;;;3.20;93.00;;;;;;4897176;29;20076;-67
2021/01/17 04:34:14;;;;;;;26.25;20.10;;;3.20;93.00;;;;;;4896059;29;20516;-68
2021/01/17 04:36:46;;;;;;;30.65;20.77;;;3.20;93.00;;;;;;4897419;29;20092;-67
2021/01/17 04:39:11;;;;;;;27.35;18.33;;;3.20;92.90;;;;;;4896675;29;20045;-68
2021/01/17 04:41:42;;;;;;;28.85;20.38;;;3.20;92.90;;;;;;4896431;29;20043;-67
2021/01/17 04:44:09;;;;;;;28.77;19.67;;;3.20;92.90;;;;;;4896648;29;20111;-68
2021/01/17 04:46:37;;;;;;;24.95;18.95;;;3.10;92.90;;;;;;4897337;29;20043;-68
2021/01/17 04:49:08;;;;;;;28.20;19.45;;;3.20;93.00;;;;;;4896311;29;20035;-68
2021/01/17 04:51:34;;;;;;;29.33;20.83;;;3.20;93.00;;;;;;4897056;29;20037;-67
2021/01/17 04:54:01;;;;;;;30.08;21.73;;;3.20;93.00;;;;;;4880037;29;20025;-68
2021/01/17 04:56:29;;;;;;;26.00;19.30;;;3.20;93.00;;;;;;4896002;29;20017;-67
2021/01/17 04:59:18;;;;;;;29.50;19.58;;;3.30;92.90;;;;;;4896820;29;20031;-67
2021/01/17 05:01:46;;;;;;;27.92;19.95;;;3.30;92.90;;;;;;4896242;29;20774;-67
2021/01/17 05:04:34;;;;;;;26.83;19.15;;;3.20;92.90;;;;;;4896447;29;20059;-67
2021/01/17 05:07:05;;;;;;;27.60;19.15;;;3.30;92.90;;;;;;4896753;29;20056;-68
2021/01/17 05:09:31;;;;;;;29.90;19.13;;;3.30;92.90;;;;;;4896383;29;20103;-68
2021/01/17 05:12:12;;;;;;;28.98;19.33;;;3.20;92.80;;;;;;4896668;29;20113;-68
2021/01/17 05:14:52;;;;;;;25.67;18.17;;;3.30;92.90;;;;;;4880046;29;20470;-68
2021/01/17 05:17:23;;;;;;;26.20;19.85;;;3.20;92.80;;;;;;4897717;29;20021;-67
2021/01/17 05:19:49;;;;;;;27.70;19.50;;;3.20;92.90;;;;;;4900434;29;20041;-67
2021/01/17 05:22:18;;;;;;;26.35;18.27;;;3.30;92.90;;;;;;4900089;29;20041;-67
2021/01/17 05:24:51;;;;;;;26.98;19.75;;;3.30;92.90;;;;;;4899842;29;20035;-68
2021/01/17 05:27:16;;;;;;;27.05;18.88;;;3.30;92.90;;;;;;4899926;29;20032;-68
2021/01/17 05:29:42;;;;;;;27.48;19.08;;;3.30;92.90;;;;;;4882868;29;20127;-68
2021/01/17 05:32:07;;;;;;;24.40;17.95;;;3.30;92.90;;;;;;4899798;29;20080;-68
2021/01/17 05:34:34;;;;;;;26.48;17.73;;;3.30;92.90;;;;;;4900252;29;20077;-67
2021/01/17 05:37:09;;;;;;;26.40;18.52;;;3.30;92.90;;;;;;4899394;29;20028;-68
2021/01/17 05:39:56;;;;;;;26.02;17.73;;;3.30;92.90;;;;;;4900214;29;20052;-67
2021/01/17 05:42:25;;;;;;;23.48;17.77;;;3.30;92.90;;;;;;4899699;29;20045;-68
2021/01/17 05:44:53;;;;;;;24.88;18.23;;;3.30;92.90;;;;;;4899329;29;20036;-68
2021/01/17 05:47:21;;;;;;;25.15;18.02;;;3.30;92.90;;;;;;4882889;29;20033;-68
2021/01/17 05:49:48;;;;;;;26.77;18.10;;;3.30;92.90;;;;;;4900045;29;20084;-69
2021/01/17 05:52:15;;;;;;;22.38;16.75;;;3.30;92.90;;;;;;4898941;29;20031;-67
2021/01/17 05:54:42;;;;;;;24.42;18.05;;;3.30;92.90;;;;;;4899981;29;20024;-68
2021/01/17 05:57:25;;;;;;;23.35;16.58;;;3.30;92.90;;;;;;4899498;29;20056;-68
2021/01/17 05:59:54;;;;;;;22.85;16.77;;;3.30;92.90;;;;;;4899111;29;20466;-69
2021/01/17 06:02:23;;;;;;;23.10;16.58;;;3.40;92.90;;;;;;4899392;29;20032;-69
2021/01/17 06:04:59;;;;;;;21.98;16.52;;;3.40;92.90;;;;;;4898942;29;20104;-69
2021/01/17 06:07:27;;;;;;;21.52;15.52;;;3.40;92.90;;;;;;4882628;29;20186;-68
2021/01/17 06:10:11;;;;;;;20.40;15.68;;;3.40;92.90;;;;;;4899391;29;20033;-68
2021/01/17 06:12:38;;;;;;;22.13;15.75;;;3.40;92.90;;;;;;4899267;29;20032;-69
2021/01/17 06:15:14;;;;;;;20.13;15.23;;;3.40;92.90;;;;;;4899091;29;20021;-67
2021/01/17 06:17:45;;;;;;;20.55;16.13;;;3.40;93.00;;;;;;4899619;29;20067;-68
2021/01/17 06:20:22;;;;;;;18.08;14.35;;;3.40;93.00;;;;;;4898491;29;20111;-68
2021/01/17 06:22:54;;;;;;;22.02;15.73;;;3.40;93.00;;;;;;4899319;29;20036;-69
2021/01/17 06:25:29;;;;;;;20.08;15.50;;;3.40;93.00;;;;;;4882254;29;20124;-69
2021/01/17 06:28:12;;;;;;;19.02;13.82;;;3.40;93.00;;;;;;4898078;29;20028;-69
2021/01/17 06:30:39;;;;;;;21.48;14.90;;;3.40;93.00;;;;;;4899331;29;20036;-68
2021/01/17 06:33:05;;;;;;;19.75;15.18;;;3.40;93.00;;;;;;4898076;29;20044;-67
2021/01/17 06:35:37;;;;;;;21.50;15.20;;;3.40;93.00;;;;;;4899246;29;20028;-68
2021/01/17 06:38:16;;;;;;;;;;;3.40;93.00;;;;;;4899474;29;20056;-68
2021/01/17 06:40:44;;;;;;;20.48;14.63;;;3.40;93.00;;;;;;4898720;29;19915;-68
2021/01/17 06:43:11;;;;;;;20.10;15.13;;;3.40;92.90;;;;;;4898486;29;20036;-68
2021/01/17 06:45:44;;;;;;;20.70;16.02;;;3.40;93.00;;;;;;4899025;29;20484;-68
2021/01/17 06:48:23;;;;;;;20.30;15.02;;;3.40;93.00;;;;;;4898003;29;20478;-67
2021/01/17 06:50:49;;;;;;;24.55;16.48;;;3.40;93.00;;;;;;4898952;29;20028;-67
2021/01/17 06:53:23;;;;;;;24.23;16.92;;;3.40;93.00;;;;;;4898350;29;20032;-68
2021/01/17 06:56:09;;;;;;;22.23;16.75;;;3.40;93.00;;;;;;4898147;29;20025;-68
2021/01/17 06:58:37;;;;;;;23.35;16.08;;;3.40;93.10;;;;;;4898113;29;20041;-69
2021/01/17 07:01:07;;;;;;;24.60;17.05;;;3.40;93.10;;;;;;4897766;29;20028;-68
2021/01/17 07:04:14;;;;;;;26.25;18.33;;;3.40;93.20;;;;;;4898723;29;20036;-67
2021/01/17 07:06:58;;;;;;;25.50;17.10;;;3.40;93.20;;;;;;4866325;29;20557;-69
2021/01/17 07:09:39;;;;;;;25.40;16.42;;;3.40;93.10;;;;;;4897595;29;20437;-68
2021/01/17 07:12:37;;;;;;;23.85;18.33;;;3.40;93.20;;;;;;4898044;29;20115;-69
2021/01/17 07:15:07;;;;;;;22.75;16.83;;;3.40;93.10;;;;;;4880997;29;20112;-68
2021/01/17 07:17:35;;;;;;;24.52;15.95;;;3.50;93.10;;;;;;4898431;29;20115;-69
2021/01/17 07:20:06;;;;;;;24.13;16.55;;;3.50;93.10;;;;;;4897682;29;20038;-69
2021/01/17 07:22:32;;;;;;;25.02;16.75;;;3.50;93.10;;;;;;4880378;29;20052;-70
2021/01/17 07:25:00;;;;;;;24.33;16.85;;;3.50;93.10;;;;;;4898071;29;20028;-68
2021/01/17 07:27:58;;;;;;;24.25;15.43;;;3.50;93.10;;;;;;4881100;29;20025;-69
2021/01/17 07:30:36;;;;;;;22.80;16.70;;;3.50;93.10;;;;;;4880542;29;20037;-67
2021/01/17 07:33:06;;;;;;;26.83;17.25;;;3.50;93.10;;;;;;4898151;29;20104;-68
2021/01/17 07:35:41;;;;;;;27.52;18.50;;;3.50;93.10;;;;;;4898470;29;20027;-67
2021/01/17 07:38:18;;;;;;;23.58;17.27;;;3.50;93.10;;;;;;4896761;29;20104;-69
2021/01/17 07:40:56;;;;;;;28.17;18.40;;;3.50;93.10;;;;;;4889273;29;20028;-68
2021/01/17 07:43:26;;;;;;;27.92;17.80;;;3.50;93.10;;;;;;4878283;29;20092;-68
2021/01/17 07:45:54;;;;;;;39.25;19.10;;;3.50;93.20;;;;;;4879184;29;20102;-69
2021/01/17 07:48:20;;;;;;;31.88;18.70;;;3.50;93.20;;;;;;4878845;29;20033;-66
2021/01/17 07:50:52;;;;;;;34.38;19.27;;;3.50;93.30;;;;;;4878438;29;20025;-69
2021/01/17 07:53:30;;;;;;;38.17;20.38;;;3.50;93.30;;;;;;4878748;29;20029;-71
2021/01/17 07:56:04;;;;;;;41.22;20.00;;;3.50;93.30;;;;;;4879082;29;20033;-71
2021/01/17 07:58:32;;;;;;;48.95;19.60;;;3.50;93.40;;;;;;4878382;29;20451;-71
2021/01/17 08:00:59;;;;;;;48.20;19.08;;;3.50;93.40;;;;;;4878818;29;20487;-71
2021/01/17 08:03:25;;;;;;;56.20;21.33;;;3.50;93.40;;;;;;4885430;29;20067;-69
2021/01/17 08:05:56;;;;;;;46.95;20.17;;;3.50;93.50;;;;;;4896556;29;20033;-69
2021/01/17 08:08:46;;;;;;;50.05;19.90;;;3.50;93.50;;;;;;4897270;29;20033;-70
2021/01/17 08:11:38;;;;;;;52.03;20.75;;;3.40;93.60;;;;;;4883060;29;20098;-71
2021/01/17 08:14:16;;;;;;;39.20;20.52;;;3.40;93.70;;;;;;4878261;29;20025;-66
2021/01/17 08:17:11;;;;;;;37.30;20.50;;;3.40;93.70;;;;;;4878862;29;20482;-69
2021/01/17 08:19:38;;;;;;;49.58;21.40;;;3.40;93.80;;;;;;4878207;29;20028;-70
2021/01/17 08:22:16;;;;;;;64.50;21.10;;;3.50;93.80;;;;;;4865379;29;20477;-68
2021/01/17 08:24:45;;;;;;;43.63;21.67;;;3.50;93.80;;;;;;4880472;29;20033;-67
2021/01/17 08:27:35;;;;;;;51.45;22.10;;;3.60;93.80;;;;;;4879529;29;20103;-67
2021/01/17 08:30:00;;;;;;;58.47;22.38;;;3.60;93.70;;;;;;4883316;29;20040;-68
2021/01/17 08:32:35;;;;;;;60.13;23.48;;;3.70;93.60;;;;;;4877898;29;20475;-69
2021/01/17 08:35:18;;;;;;;60.33;23.17;;;3.80;93.60;;;;;;4878880;29;20029;-69
2021/01/17 08:37:49;;;;;;;51.50;22.05;;;3.80;93.50;;;;;;4882725;29;20525;-68
2021/01/17 08:40:35;;;;;;;55.05;23.48;;;3.90;93.50;;;;;;4864540;29;20025;-70
2021/01/17 08:43:03;;;;;;;51.83;22.77;;;3.90;93.40;;;;;;4869104;29;20126;-70
2021/01/17 08:45:28;;;;;;;58.53;23.75;;;4.00;93.40;;;;;;4897088;29;20031;-70
2021/01/17 08:47:56;;;;;;;49.85;25.73;;;4.00;93.30;;;;;;4896422;29;20025;-70
2021/01/17 08:50:35;;;;;;;56.67;25.13;;;4.10;93.30;;;;;;4896852;29;20029;-70
2021/01/17 08:53:13;;;;;;;52.72;24.65;;;4.10;93.30;;;;;;4899295;29;20079;-70
2021/01/17 08:55:43;;;;;;;58.72;25.67;;;4.20;93.20;;;;;;4900423;29;20482;-70
2021/01/17 08:58:10;;;;;;;49.45;23.95;;;4.10;93.10;;;;;;4883549;29;20104;-70
2021/01/17 09:00:57;;;;;;;52.40;26.10;;;4.20;93.50;;;;;;4883502;29;20032;-70
2021/01/17 09:03:36;;;;;;;62.63;26.48;;;4.20;93.10;;;;;;4900115;29;20394;-70
2021/01/17 09:06:05;;;;;;;52.60;25.95;;;4.20;93.10;;;;;;4900619;29;20083;-70
2021/01/17 09:08:32;;;;;;;49.13;27.10;;;4.30;93.10;;;;;;4900017;29;20017;-70
2021/01/17 09:10:59;;;;;;;51.88;25.48;;;4.30;93.10;;;;;;4900656;29;20103;-70
2021/01/17 09:13:25;;;;;;;48.95;25.75;;;4.40;93.00;;;;;;4900251;29;20025;-70
2021/01/17 09:16:06;;;;;;;56.65;27.35;;;4.40;93.00;;;;;;4899889;29;20048;-70
2021/01/17 09:18:39;;;;;;;47.83;27.27;;;4.50;93.00;;;;;;4900555;29;20028;-70
2021/01/17 09:21:06;;;;;;;47.88;25.38;;;4.50;92.90;;;;;;4900073;29;20433;-70
2021/01/17 09:23:37;;;;;;;55.67;27.77;;;4.60;92.90;;;;;;4899737;29;20040;-69
2021/01/17 09:26:04;;;;;;;51.20;26.13;;;4.70;92.90;;;;;;4900172;29;20021;-66
2021/01/17 09:28:31;;;;;;;45.38;25.83;;;4.80;92.80;;;;;;4900479;29;20127;-70
2021/01/17 09:30:59;;;;;;;45.20;25.75;;;4.90;92.80;;;;;;4899626;29;20047;-70
2021/01/17 09:33:25;;;;;;;50.05;24.92;;;5.00;92.80;;;;;;4899249;29;20379;-70
2021/01/17 09:35:51;;;;;;;44.40;24.38;;;5.00;92.70;;;;;;4899261;29;20032;-71
2021/01/17 09:38:23;;;;;;;50.28;27.05;;;5.10;92.70;;;;;;4899455;29;20044;-69
2021/01/17 09:40:51;;;;;;;48.63;26.05;;;5.20;92.60;;;;;;4900128;29;20107;-70
2021/01/17 09:43:17;;;;;;;46.22;24.88;;;5.20;92.50;;;;;;4898653;29;20052;-71
2021/01/17 09:45:49;;;;;;;43.53;26.35;;;5.30;92.40;;;;;;4900249;29;20033;-71
2021/01/17 09:48:18;;;;;;;116.55;29.33;;;5.30;92.40;;;;;;4899537;29;20036;-71
2021/01/17 09:50:44;;;;;;;42.78;25.95;;;5.40;92.40;;;;;;4899312;29;20028;-70
2021/01/17 09:53:10;;;;;;;49.53;27.20;;;5.50;92.30;;;;;;4898983;29;20033;-74
2021/01/17 09:55:43;;;;;;;85.22;27.20;;;5.50;92.30;;;;;;4883010;29;20031;-69
2021/01/17 09:58:12;;;;;;;56.33;28.20;;;5.50;92.10;;;;;;4897474;29;20028;-70
2021/01/17 10:00:39;;;;;;;53.60;27.60;;;5.60;92.10;;;;;;4879684;29;20517;-70
2021/01/17 10:03:12;;;;;;;48.72;26.77;;;5.60;91.90;;;;;;4877431;29;20135;-70
2021/01/17 10:05:38;;;;;;;43.50;25.90;;;5.70;91.90;;;;;;4895536;29;20036;-69
2021/01/17 10:08:08;;;;;;;46.05;26.80;;;5.70;92.00;;;;;;4878923;29;20862;-71
2021/01/17 10:10:35;;;;;;;45.67;26.55;;;5.80;91.90;;;;;;4896278;29;20478;-69
2021/01/17 10:13:01;;;;;;;45.83;26.02;;;5.80;91.90;;;;;;4895309;29;20087;-68
2021/01/17 10:15:27;;;;;;;44.22;25.50;;;5.90;91.80;;;;;;4895393;29;20025;-68
2021/01/17 10:17:54;;;;;;;41.45;24.15;;;6.00;91.90;;;;;;4879237;29;20028;-69
2021/01/17 10:20:24;;;;;;;49.30;26.98;;;6.10;91.90;;;;;;4878934;29;20036;-70
2021/01/17 10:23:04;;;;;;;43.58;24.08;;;6.30;91.70;;;;;;4895864;29;20051;-68
2021/01/17 10:25:31;;;;;;;39.53;23.90;;;6.40;91.60;;;;;;4895453;29;20054;-67
2021/01/17 10:28:08;;;;;;;48.33;26.02;;;6.50;91.50;;;;;;4895126;29;20482;-67
2021/01/17 10:30:42;;;;;;;39.42;24.23;;;6.50;91.40;;;;;;4896008;29;20079;-67
2021/01/17 10:33:10;;;;;;;42.33;25.20;;;6.50;91.30;;;;;;4877549;29;20040;-71
2021/01/17 10:35:44;;;;;;;47.15;26.45;;;6.50;91.30;;;;;;4895999;29;20072;-68
2021/01/17 10:38:10;;;;;;;43.72;23.75;;;6.50;91.40;;;;;;4894688;29;20064;-69
2021/01/17 10:40:38;;;;;;;41.03;23.95;;;6.50;91.40;;;;;;4877265;29;20034;-72
2021/01/17 10:43:07;;;;;;;42.42;25.27;;;6.50;91.40;;;;;;4890441;29;20033;-66
2021/01/17 10:45:34;;;;;;;38.80;23.77;;;6.60;91.40;;;;;;4895820;29;20040;-69
2021/01/17 10:48:11;;;;;;;45.95;25.67;;;6.60;91.40;;;;;;4895032;29;20036;-69
2021/01/17 10:50:46;;;;;;;177.95;33.38;;;6.70;91.40;;;;;;4895348;29;20036;-73
2021/01/17 10:53:38;;;;;;;43.97;24.33;;;6.70;91.40;;;;;;4894245;29;20060;-73
2021/01/17 10:56:04;;;;;;;43.13;22.33;;;6.70;91.50;;;;;;4891296;29;20506;-71
2021/01/17 10:58:40;;;;;;;47.53;24.33;;;6.70;91.60;;;;;;4895164;29;20088;-72
2021/01/17 11:01:06;;;;;;;41.55;22.60;;;6.60;91.70;;;;;;4877327;29;20400;-72
2021/01/17 11:03:36;;;;;;;578.70;62.40;;;6.60;91.80;;;;;;4894779;29;20052;-72
2021/01/17 11:06:07;;;;;;;42.53;22.88;;;6.60;91.80;;;;;;4895246;29;20020;-75
2021/01/17 11:08:39;;;;;;;46.03;22.73;;;6.50;91.80;;;;;;4890500;29;20032;-72
2021/01/17 11:11:04;;;;;;;41.38;23.77;;;6.50;91.90;;;;;;4894598;29;20035;-76
2021/01/17 11:13:30;;;;;;;38.53;25.13;;;6.40;92.10;;;;;;4880819;29;20024;-71
2021/01/17 11:15:56;;;;;;;40.13;23.10;;;6.40;92.20;;;;;;4879665;29;20036;-77
2021/01/17 11:18:22;;;;;;;38.67;21.50;;;6.40;92.20;;;;;;4878719;29;20607;-76
2021/01/17 11:20:55;;;;;;;42.67;21.80;;;6.60;92.20;;;;;;4901736;29;20474;-72
2021/01/17 11:23:23;;;;;;;45.60;26.45;;;6.70;92.10;;;;;;4879850;29;20072;-74
2021/01/17 11:26:00;;;;;;;40.40;23.33;;;6.80;92.00;;;;;;4880267;29;20063;-72
2021/01/17 11:28:28;;;;;;;40.70;22.85;;;7.00;91.90;;;;;;4896794;29;20040;-73
2021/01/17 11:31:10;;;;;;;45.25;22.48;;;7.10;91.70;;;;;;4880120;29;20025;-72
2021/01/17 11:33:37;;;;;;;38.03;21.65;;;7.30;91.70;;;;;;4896892;29;20033;-73
2021/01/17 11:36:03;;;;;;;41.92;21.40;;;7.40;91.60;;;;;;4879882;29;20111;-71
2021/01/17 11:38:44;;;;;;;38.88;17.90;;;7.40;91.60;;;;;;4880290;29;20048;-74
2021/01/17 11:41:13;;;;;;;30.75;11.85;;;7.50;91.70;;;;;;4896596;29;20025;-72
2021/01/17 11:43:39;;;;;;;54.60;14.73;;;7.60;91.90;;;;;;4896618;29;20100;-75
2021/01/17 11:46:06;;;;;;;26.02;10.43;;;7.70;92.10;;;;;;4896749;29;20036;-80
2021/01/17 11:48:33;;;;;;;25.45;9.38;;;7.60;92.10;;;;;;4884766;29;20118;-77
2021/01/17 11:50:59;;;;;;;30.55;10.77;;;7.50;92.10;;;;;;4880042;29;20021;-81
2021/01/17 11:53:47;;;;;;;32.70;10.60;;;7.40;92.30;;;;;;4900281;29;20031;-91
2021/01/17 11:56:42;;;;;;;33.20;11.82;;;7.40;92.70;;;;;;4886022;29;20051;-87
2021/01/17 11:59:28;;;;;;;26.83;10.82;;;7.30;92.80;;;;;;4902972;29;20032;-86
2021/01/17 12:01:55;;;;;;;30.75;11.07;;;7.40;92.80;;;;;;4866328;29;20044;-82
2021/01/17 12:04:26;;;;;;;38.03;11.75;;;7.40;92.80;;;;;;4896370;29;20075;-79
2021/01/17 12:07:08;;;;;;;31.35;12.05;;;7.40;92.90;;;;;;4879960;29;20036;-77
2021/01/17 12:09:34;;;;;;;27.63;11.00;;;7.40;92.90;;;;;;4880272;29;20494;-77
2021/01/17 12:12:18;;;;;;;29.38;8.98;;;7.30;92.90;;;;;;4895964;29;20056;-77
2021/01/17 12:14:45;;;;;;;29.60;9.73;;;7.30;93.00;;;;;;4877979;29;20112;-77
2021/01/17 12:17:11;;;;;;;23.75;8.27;;;7.20;93.10;;;;;;4895564;29;20036;-76
2021/01/17 12:19:38;;;;;;;123.95;16.15;;;7.10;93.20;;;;;;4878594;29;20020;-76
2021/01/17 12:22:07;;;;;;;24.10;8.68;;;7.10;93.40;;;;;;4896358;29;20376;-75
2021/01/17 12:24:34;;;;;;;28.08;8.85;;;7.10;93.70;;;;;;4878798;29;20032;-77
2021/01/17 12:27:01;;;;;;;28.23;7.90;;;7.10;93.80;;;;;;4895762;29;20028;-75
2021/01/17 12:29:26;;;;;;;22.17;8.80;;;7.10;93.90;;;;;;4896199;29;20430;-76
2021/01/17 12:31:52;;;;;;;50.92;9.70;;;7.00;93.90;;;;;;4895200;29;20052;-75
2021/01/17 12:34:19;;;;;;;27.77;8.10;;;7.00;93.90;;;;;;4895983;29;20179;-77
2021/01/17 12:36:45;;;;;;;24.85;7.82;;;7.00;94.00;;;;;;4896259;29;20044;-74
2021/01/17 12:39:14;;;;;;;24.48;6.68;;;7.00;93.90;;;;;;4878858;29;20135;-76
2021/01/17 12:41:44;;;;;;;25.80;6.07;;;7.00;94.00;;;;;;4896310;29;20124;-75
2021/01/17 12:44:17;;;;;;;22.40;7.63;;;7.10;94.00;;;;;;4896268;29;20044;-75
2021/01/17 12:46:43;;;;;;;25.10;6.30;;;7.10;94.10;;;;;;4880321;29;20021;-82
2021/01/17 12:49:10;;;;;;;25.27;8.43;;;7.20;94.00;;;;;;4879568;29;20500;-75
2021/01/17 12:51:35;;;;;;;23.40;6.22;;;7.20;93.90;;;;;;4897328;29;20486;-79
2021/01/17 12:54:01;;;;;;;25.63;7.18;;;7.20;93.90;;;;;;4895025;29;20107;-74